sensor_id;sensor_type;location;lat;lon;timestamp;P1;durP1;ratioP1;P2;durP2;ratioP2
16522;SDS011;19889;52.546;13.348;2023-02-28T00:00:22;4.20;;;2.50;;
16522;SDS011;19889;52.546;13.348;2023-02-28T00:02:50;4.03;;;2.87;;
16522;SDS011;19889;52.546;13.348;2023-02-28T00:05:18;5.93;;;2.77;;
16522;SDS011;19889;52.546;13.348;2023-02-28T00:07:46;4.57;;;2.43;;
16522;SDS011;19889;52.546;13.348;2023-02-28T00:10:14;4.70;;;2.90;;
16522;SDS011;19889;52.546;13.348;2023-02-28T00:12:45;4.20;;;2.73;;
16522;SDS011;19889;52.546;13.348;2023-02-28T00:15:12;4.20;;;2.77;;
16522;SDS011;19889;52.546;13.348;2023-02-28T00:17:39;4.80;;;2.93;;
16522;SDS011;19889;52.546;13.348;2023-02-28T00:20:08;7.33;;;2.93;;
16522;SDS011;19889;52.546;13.348;2023-02-28T00:22:37;6.77;;;3.50;;
16522;SDS011;19889;52.546;13.348;2023-02-28T00:25:05;5.17;;;3.27;;
16522;SDS011;19889;52.546;13.348;2023-02-28T00:27:33;6.73;;;3.03;;
16522;SDS011;19889;52.546;13.348;2023-02-28T00:30:05;6.83;;;2.77;;
16522;SDS011;19889;52.546;13.348;2023-02-28T00:32:36;4.53;;;2.70;;
16522;SDS011;19889;52.546;13.348;2023-02-28T00:35:03;3.47;;;2.90;;
16522;SDS011;19889;52.546;13.348;2023-02-28T00:37:32;4.90;;;3.20;;
16522;SDS011;19889;52.546;13.348;2023-02-28T00:39:59;4.37;;;2.90;;
16522;SDS011;19889;52.546;13.348;2023-02-28T00:42:30;6.37;;;3.40;;
16522;SDS011;19889;52.546;13.348;2023-02-28T00:44:57;5.77;;;3.10;;
16522;SDS011;19889;52.546;13.348;2023-02-28T00:47:25;6.73;;;3.00;;
16522;SDS011;19889;52.546;13.348;2023-02-28T00:49:52;5.17;;;3.00;;
16522;SDS011;19889;52.546;13.348;2023-02-28T00:52:19;6.53;;;3.47;;
16522;SDS011;19889;52.546;13.348;2023-02-28T00:54:46;4.60;;;2.90;;
16522;SDS011;19889;52.546;13.348;2023-02-28T00:57:14;5.40;;;2.70;;
16522;SDS011;19889;52.546;13.348;2023-02-28T00:59:40;5.10;;;3.23;;
16522;SDS011;19889;52.546;13.348;2023-02-28T01:02:07;4.77;;;2.73;;
16522;SDS011;19889;52.546;13.348;2023-02-28T01:04:37;5.27;;;3.47;;
16522;SDS011;19889;52.546;13.348;2023-02-28T01:07:04;4.50;;;2.57;;
16522;SDS011;19889;52.546;13.348;2023-02-28T01:09:31;4.87;;;3.00;;
16522;SDS011;19889;52.546;13.348;2023-02-28T01:11:58;5.10;;;3.53;;
16522;SDS011;19889;52.546;13.348;2023-02-28T01:14:25;5.40;;;3.30;;
16522;SDS011;19889;52.546;13.348;2023-02-28T01:16:52;3.97;;;2.80;;
16522;SDS011;19889;52.546;13.348;2023-02-28T01:19:18;4.77;;;2.80;;
16522;SDS011;19889;52.546;13.348;2023-02-28T01:21:47;4.27;;;2.87;;
16522;SDS011;19889;52.546;13.348;2023-02-28T01:24:14;6.53;;;3.20;;
16522;SDS011;19889;52.546;13.348;2023-02-28T01:26:41;7.23;;;3.13;;
16522;SDS011;19889;52.546;13.348;2023-02-28T01:29:08;7.60;;;2.97;;
16522;SDS011;19889;52.546;13.348;2023-02-28T01:31:34;4.77;;;3.03;;
16522;SDS011;19889;52.546;13.348;2023-02-28T01:34:01;5.93;;;3.00;;
16522;SDS011;19889;52.546;13.348;2023-02-28T01:36:29;5.53;;;3.23;;
16522;SDS011;19889;52.546;13.348;2023-02-28T01:38:58;5.60;;;3.77;;
16522;SDS011;19889;52.546;13.348;2023-02-28T01:41:26;4.90;;;3.37;;
16522;SDS011;19889;52.546;13.348;2023-02-28T01:43:56;9.10;;;3.40;;
16522;SDS011;19889;52.546;13.348;2023-02-28T01:46:29;7.67;;;3.13;;
16522;SDS011;19889;52.546;13.348;2023-02-28T01:48:59;3.50;;;3.10;;
16522;SDS011;19889;52.546;13.348;2023-02-28T01:51:31;4.90;;;2.80;;
16522;SDS011;19889;52.546;13.348;2023-02-28T01:54:05;4.87;;;2.83;;
16522;SDS011;19889;52.546;13.348;2023-02-28T01:56:39;6.00;;;2.90;;
16522;SDS011;19889;52.546;13.348;2023-02-28T01:59:10;5.33;;;3.40;;
16522;SDS011;19889;52.546;13.348;2023-02-28T02:01:40;6.33;;;3.20;;
16522;SDS011;19889;52.546;13.348;2023-02-28T02:04:07;5.20;;;2.90;;
16522;SDS011;19889;52.546;13.348;2023-02-28T02:06:35;5.37;;;3.60;;
16522;SDS011;19889;52.546;13.348;2023-02-28T02:09:11;4.83;;;2.97;;
16522;SDS011;19889;52.546;13.348;2023-02-28T02:11:39;6.13;;;3.50;;
16522;SDS011;19889;52.546;13.348;2023-02-28T02:17:08;6.43;;;3.00;;
16522;SDS011;19889;52.546;13.348;2023-02-28T02:19:49;6.90;;;3.40;;
16522;SDS011;19889;52.546;13.348;2023-02-28T02:25:43;5.27;;;3.17;;
16522;SDS011;19889;52.546;13.348;2023-02-28T02:28:37;5.30;;;3.27;;
16522;SDS011;19889;52.546;13.348;2023-02-28T02:34:38;4.47;;;3.43;;
16522;SDS011;19889;52.546;13.348;2023-02-28T02:37:17;6.77;;;4.10;;
16522;SDS011;19889;52.546;13.348;2023-02-28T02:40:00;9.00;;;3.93;;
16522;SDS011;19889;52.546;13.348;2023-02-28T02:42:37;5.27;;;4.03;;
16522;SDS011;19889;52.546;13.348;2023-02-28T02:45:09;5.87;;;3.40;;
16522;SDS011;19889;52.546;13.348;2023-02-28T02:47:40;7.97;;;3.57;;
16522;SDS011;19889;52.546;13.348;2023-02-28T02:50:12;5.87;;;3.33;;
16522;SDS011;19889;52.546;13.348;2023-02-28T02:52:44;5.37;;;3.73;;
16522;SDS011;19889;52.546;13.348;2023-02-28T02:55:15;4.63;;;3.13;;
16522;SDS011;19889;52.546;13.348;2023-02-28T02:57:46;4.37;;;3.47;;
16522;SDS011;19889;52.546;13.348;2023-02-28T03:00:16;5.13;;;3.50;;
16522;SDS011;19889;52.546;13.348;2023-02-28T03:02:46;4.90;;;3.20;;
16522;SDS011;19889;52.546;13.348;2023-02-28T03:05:18;5.43;;;3.57;;
16522;SDS011;19889;52.546;13.348;2023-02-28T03:07:49;5.83;;;3.70;;
16522;SDS011;19889;52.546;13.348;2023-02-28T03:10:30;6.73;;;3.50;;
16522;SDS011;19889;52.546;13.348;2023-02-28T03:13:02;5.30;;;3.40;;
16522;SDS011;19889;52.546;13.348;2023-02-28T03:15:56;6.27;;;3.70;;
16522;SDS011;19889;52.546;13.348;2023-02-28T03:18:36;6.77;;;3.73;;
16522;SDS011;19889;52.546;13.348;2023-02-28T03:21:14;5.93;;;3.53;;
16522;SDS011;19889;52.546;13.348;2023-02-28T03:23:48;5.13;;;4.00;;
16522;SDS011;19889;52.546;13.348;2023-02-28T03:26:24;8.80;;;3.70;;
16522;SDS011;19889;52.546;13.348;2023-02-28T03:28:55;8.17;;;3.87;;
16522;SDS011;19889;52.546;13.348;2023-02-28T03:31:29;6.30;;;3.60;;
16522;SDS011;19889;52.546;13.348;2023-02-28T03:34:00;5.43;;;2.97;;
16522;SDS011;19889;52.546;13.348;2023-02-28T03:36:33;8.53;;;3.87;;
16522;SDS011;19889;52.546;13.348;2023-02-28T03:39:09;9.40;;;3.93;;
16522;SDS011;19889;52.546;13.348;2023-02-28T03:41:41;6.97;;;3.63;;
16522;SDS011;19889;52.546;13.348;2023-02-28T03:44:13;7.00;;;3.50;;
16522;SDS011;19889;52.546;13.348;2023-02-28T03:46:45;6.17;;;3.60;;
16522;SDS011;19889;52.546;13.348;2023-02-28T03:49:18;8.27;;;4.27;;
16522;SDS011;19889;52.546;13.348;2023-02-28T03:51:49;7.07;;;3.70;;
16522;SDS011;19889;52.546;13.348;2023-02-28T03:54:18;8.03;;;4.23;;
16522;SDS011;19889;52.546;13.348;2023-02-28T03:56:48;6.97;;;4.23;;
16522;SDS011;19889;52.546;13.348;2023-02-28T03:59:20;9.30;;;4.20;;
16522;SDS011;19889;52.546;13.348;2023-02-28T04:01:50;7.10;;;3.80;;
16522;SDS011;19889;52.546;13.348;2023-02-28T04:04:17;7.40;;;4.20;;
16522;SDS011;19889;52.546;13.348;2023-02-28T04:06:45;6.83;;;3.93;;
16522;SDS011;19889;52.546;13.348;2023-02-28T04:09:13;6.07;;;3.83;;
16522;SDS011;19889;52.546;13.348;2023-02-28T04:11:41;7.37;;;4.33;;
16522;SDS011;19889;52.546;13.348;2023-02-28T04:14:10;5.43;;;3.50;;
16522;SDS011;19889;52.546;13.348;2023-02-28T04:16:38;5.47;;;3.67;;
16522;SDS011;19889;52.546;13.348;2023-02-28T04:19:08;6.90;;;4.17;;
16522;SDS011;19889;52.546;13.348;2023-02-28T04:21:38;6.23;;;4.40;;
16522;SDS011;19889;52.546;13.348;2023-02-28T04:24:06;8.73;;;4.13;;
16522;SDS011;19889;52.546;13.348;2023-02-28T04:26:40;7.70;;;4.07;;
16522;SDS011;19889;52.546;13.348;2023-02-28T04:29:10;6.67;;;4.10;;
16522;SDS011;19889;52.546;13.348;2023-02-28T04:31:38;7.30;;;4.50;;
16522;SDS011;19889;52.546;13.348;2023-02-28T04:34:05;6.10;;;3.70;;
16522;SDS011;19889;52.546;13.348;2023-02-28T04:36:32;5.40;;;3.30;;
16522;SDS011;19889;52.546;13.348;2023-02-28T04:38:59;8.30;;;4.53;;
16522;SDS011;19889;52.546;13.348;2023-02-28T04:41:26;5.70;;;4.10;;
16522;SDS011;19889;52.546;13.348;2023-02-28T04:43:55;4.37;;;3.57;;
16522;SDS011;19889;52.546;13.348;2023-02-28T04:46:22;6.67;;;4.07;;
16522;SDS011;19889;52.546;13.348;2023-02-28T04:48:49;6.47;;;4.50;;
16522;SDS011;19889;52.546;13.348;2023-02-28T04:51:17;8.27;;;4.60;;
16522;SDS011;19889;52.546;13.348;2023-02-28T04:53:45;9.10;;;4.53;;
16522;SDS011;19889;52.546;13.348;2023-02-28T04:56:14;10.27;;;5.40;;
16522;SDS011;19889;52.546;13.348;2023-02-28T04:58:42;8.87;;;5.03;;
16522;SDS011;19889;52.546;13.348;2023-02-28T05:01:17;8.30;;;4.77;;
16522;SDS011;19889;52.546;13.348;2023-02-28T05:03:47;7.60;;;4.87;;
16522;SDS011;19889;52.546;13.348;2023-02-28T05:06:15;7.63;;;4.60;;
16522;SDS011;19889;52.546;13.348;2023-02-28T05:08:42;6.57;;;3.87;;
16522;SDS011;19889;52.546;13.348;2023-02-28T05:11:13;7.30;;;4.23;;
16522;SDS011;19889;52.546;13.348;2023-02-28T05:13:43;5.80;;;4.63;;
16522;SDS011;19889;52.546;13.348;2023-02-28T05:16:10;9.77;;;4.17;;
16522;SDS011;19889;52.546;13.348;2023-02-28T05:18:38;6.70;;;4.40;;
16522;SDS011;19889;52.546;13.348;2023-02-28T05:21:05;12.73;;;5.73;;
16522;SDS011;19889;52.546;13.348;2023-02-28T05:23:32;7.40;;;4.87;;
16522;SDS011;19889;52.546;13.348;2023-02-28T05:25:59;7.17;;;4.80;;
16522;SDS011;19889;52.546;13.348;2023-02-28T05:28:26;8.93;;;4.30;;
16522;SDS011;19889;52.546;13.348;2023-02-28T05:30:53;8.73;;;5.30;;
16522;SDS011;19889;52.546;13.348;2023-02-28T05:33:20;9.30;;;5.00;;
16522;SDS011;19889;52.546;13.348;2023-02-28T05:35:49;8.97;;;4.87;;
16522;SDS011;19889;52.546;13.348;2023-02-28T05:38:16;10.40;;;5.33;;
16522;SDS011;19889;52.546;13.348;2023-02-28T05:40:43;8.10;;;5.03;;
16522;SDS011;19889;52.546;13.348;2023-02-28T05:43:10;7.70;;;4.57;;
16522;SDS011;19889;52.546;13.348;2023-02-28T05:45:38;12.27;;;5.50;;
16522;SDS011;19889;52.546;13.348;2023-02-28T05:48:05;7.80;;;5.47;;
16522;SDS011;19889;52.546;13.348;2023-02-28T05:50:32;6.70;;;5.03;;
16522;SDS011;19889;52.546;13.348;2023-02-28T05:53:00;12.40;;;5.57;;
16522;SDS011;19889;52.546;13.348;2023-02-28T05:55:27;8.13;;;5.37;;
16522;SDS011;19889;52.546;13.348;2023-02-28T05:57:54;6.97;;;5.37;;
16522;SDS011;19889;52.546;13.348;2023-02-28T06:00:21;9.23;;;5.40;;
16522;SDS011;19889;52.546;13.348;2023-02-28T06:02:48;9.90;;;4.43;;
16522;SDS011;19889;52.546;13.348;2023-02-28T06:05:17;12.47;;;5.57;;
16522;SDS011;19889;52.546;13.348;2023-02-28T06:07:44;7.97;;;4.83;;
16522;SDS011;19889;52.546;13.348;2023-02-28T06:10:12;8.93;;;5.47;;
16522;SDS011;19889;52.546;13.348;2023-02-28T06:12:40;11.03;;;5.87;;
16522;SDS011;19889;52.546;13.348;2023-02-28T06:15:09;11.33;;;5.80;;
16522;SDS011;19889;52.546;13.348;2023-02-28T06:17:39;7.97;;;5.07;;
16522;SDS011;19889;52.546;13.348;2023-02-28T06:20:07;10.33;;;6.00;;
16522;SDS011;19889;52.546;13.348;2023-02-28T06:22:35;9.93;;;6.00;;
16522;SDS011;19889;52.546;13.348;2023-02-28T06:25:03;13.23;;;5.80;;
16522;SDS011;19889;52.546;13.348;2023-02-28T06:27:31;8.00;;;5.57;;
16522;SDS011;19889;52.546;13.348;2023-02-28T06:29:59;10.67;;;5.80;;
16522;SDS011;19889;52.546;13.348;2023-02-28T06:32:26;11.73;;;6.17;;
16522;SDS011;19889;52.546;13.348;2023-02-28T06:34:53;9.97;;;5.83;;
16522;SDS011;19889;52.546;13.348;2023-02-28T06:37:22;12.60;;;5.93;;
16522;SDS011;19889;52.546;13.348;2023-02-28T06:39:51;13.20;;;7.60;;
16522;SDS011;19889;52.546;13.348;2023-02-28T06:42:18;12.90;;;7.00;;
16522;SDS011;19889;52.546;13.348;2023-02-28T06:44:46;13.10;;;7.10;;
16522;SDS011;19889;52.546;13.348;2023-02-28T06:47:13;11.37;;;6.63;;
16522;SDS011;19889;52.546;13.348;2023-02-28T06:49:40;13.03;;;7.03;;
16522;SDS011;19889;52.546;13.348;2023-02-28T06:52:07;14.47;;;8.30;;
16522;SDS011;19889;52.546;13.348;2023-02-28T06:54:36;12.57;;;7.77;;
16522;SDS011;19889;52.546;13.348;2023-02-28T06:57:03;11.10;;;7.43;;
16522;SDS011;19889;52.546;13.348;2023-02-28T06:59:30;13.17;;;8.13;;
16522;SDS011;19889;52.546;13.348;2023-02-28T07:01:58;12.03;;;7.03;;
16522;SDS011;19889;52.546;13.348;2023-02-28T07:04:27;11.53;;;6.33;;
16522;SDS011;19889;52.546;13.348;2023-02-28T07:06:54;10.10;;;6.37;;
16522;SDS011;19889;52.546;13.348;2023-02-28T07:09:22;11.83;;;6.20;;
16522;SDS011;19889;52.546;13.348;2023-02-28T07:11:49;14.10;;;6.50;;
16522;SDS011;19889;52.546;13.348;2023-02-28T07:14:16;10.80;;;7.20;;
16522;SDS011;19889;52.546;13.348;2023-02-28T07:16:43;14.63;;;7.37;;
16522;SDS011;19889;52.546;13.348;2023-02-28T07:19:12;13.53;;;7.97;;
16522;SDS011;19889;52.546;13.348;2023-02-28T07:21:39;11.33;;;7.10;;
16522;SDS011;19889;52.546;13.348;2023-02-28T07:24:06;9.47;;;7.00;;
16522;SDS011;19889;52.546;13.348;2023-02-28T07:26:33;10.23;;;7.07;;
16522;SDS011;19889;52.546;13.348;2023-02-28T07:29:00;12.97;;;8.30;;
16522;SDS011;19889;52.546;13.348;2023-02-28T07:31:27;12.10;;;7.57;;
16522;SDS011;19889;52.546;13.348;2023-02-28T07:33:54;12.40;;;6.67;;
16522;SDS011;19889;52.546;13.348;2023-02-28T07:36:22;9.07;;;6.20;;
16522;SDS011;19889;52.546;13.348;2023-02-28T07:38:50;10.53;;;7.03;;
16522;SDS011;19889;52.546;13.348;2023-02-28T07:41:17;11.00;;;6.60;;
16522;SDS011;19889;52.546;13.348;2023-02-28T07:43:49;10.37;;;6.43;;
16522;SDS011;19889;52.546;13.348;2023-02-28T07:46:19;9.03;;;5.37;;
16522;SDS011;19889;52.546;13.348;2023-02-28T07:48:46;9.47;;;6.33;;
16522;SDS011;19889;52.546;13.348;2023-02-28T07:51:13;10.00;;;6.07;;
16522;SDS011;19889;52.546;13.348;2023-02-28T07:53:42;10.93;;;6.27;;
16522;SDS011;19889;52.546;13.348;2023-02-28T07:56:09;10.17;;;6.43;;
16522;SDS011;19889;52.546;13.348;2023-02-28T07:58:36;8.83;;;6.20;;
16522;SDS011;19889;52.546;13.348;2023-02-28T08:01:06;10.47;;;6.27;;
16522;SDS011;19889;52.546;13.348;2023-02-28T08:03:35;11.43;;;6.07;;
16522;SDS011;19889;52.546;13.348;2023-02-28T08:06:03;10.00;;;5.50;;
16522;SDS011;19889;52.546;13.348;2023-02-28T08:08:31;11.57;;;5.90;;
16522;SDS011;19889;52.546;13.348;2023-02-28T08:10:59;10.23;;;5.87;;
16522;SDS011;19889;52.546;13.348;2023-02-28T08:13:28;8.73;;;5.67;;
16522;SDS011;19889;52.546;13.348;2023-02-28T08:15:56;6.80;;;5.23;;
16522;SDS011;19889;52.546;13.348;2023-02-28T08:18:23;10.23;;;5.70;;
16522;SDS011;19889;52.546;13.348;2023-02-28T08:20:50;6.23;;;4.80;;
16522;SDS011;19889;52.546;13.348;2023-02-28T08:23:17;9.10;;;5.43;;
16522;SDS011;19889;52.546;13.348;2023-02-28T08:25:44;7.83;;;5.90;;
16522;SDS011;19889;52.546;13.348;2023-02-28T08:28:12;9.27;;;5.40;;
16522;SDS011;19889;52.546;13.348;2023-02-28T08:30:39;7.80;;;4.97;;
16522;SDS011;19889;52.546;13.348;2023-02-28T08:33:06;6.50;;;3.73;;
16522;SDS011;19889;52.546;13.348;2023-02-28T08:35:35;5.67;;;3.90;;
16522;SDS011;19889;52.546;13.348;2023-02-28T08:38:02;6.10;;;3.20;;
16522;SDS011;19889;52.546;13.348;2023-02-28T08:40:29;3.23;;;2.70;;
16522;SDS011;19889;52.546;13.348;2023-02-28T08:42:56;5.87;;;2.63;;
16522;SDS011;19889;52.546;13.348;2023-02-28T08:45:25;4.23;;;2.30;;
16522;SDS011;19889;52.546;13.348;2023-02-28T08:47:53;3.20;;;1.93;;
16522;SDS011;19889;52.546;13.348;2023-02-28T08:50:21;4.23;;;1.93;;
16522;SDS011;19889;52.546;13.348;2023-02-28T08:52:49;4.00;;;2.17;;
16522;SDS011;19889;52.546;13.348;2023-02-28T08:55:16;3.83;;;2.03;;
16522;SDS011;19889;52.546;13.348;2023-02-28T08:57:43;8.53;;;5.23;;
16522;SDS011;19889;52.546;13.348;2023-02-28T09:00:10;6.50;;;3.57;;
16522;SDS011;19889;52.546;13.348;2023-02-28T09:02:40;10.17;;;5.60;;
16522;SDS011;19889;52.546;13.348;2023-02-28T09:05:09;3.93;;;2.77;;
16522;SDS011;19889;52.546;13.348;2023-02-28T09:07:36;4.37;;;1.97;;
16522;SDS011;19889;52.546;13.348;2023-02-28T09:10:03;3.70;;;2.10;;
16522;SDS011;19889;52.546;13.348;2023-02-28T09:12:32;2.90;;;1.90;;
16522;SDS011;19889;52.546;13.348;2023-02-28T09:15:00;2.47;;;1.70;;
16522;SDS011;19889;52.546;13.348;2023-02-28T09:17:27;2.30;;;1.90;;
16522;SDS011;19889;52.546;13.348;2023-02-28T09:19:56;6.27;;;3.20;;
16522;SDS011;19889;52.546;13.348;2023-02-28T09:22:23;4.23;;;2.60;;
16522;SDS011;19889;52.546;13.348;2023-02-28T09:24:50;4.67;;;3.17;;
16522;SDS011;19889;52.546;13.348;2023-02-28T09:27:17;3.60;;;2.60;;
16522;SDS011;19889;52.546;13.348;2023-02-28T09:29:44;2.63;;;2.10;;
16522;SDS011;19889;52.546;13.348;2023-02-28T09:32:11;2.00;;;1.60;;
16522;SDS011;19889;52.546;13.348;2023-02-28T09:34:38;1.77;;;1.63;;
16522;SDS011;19889;52.546;13.348;2023-02-28T09:37:07;2.17;;;1.40;;
16522;SDS011;19889;52.546;13.348;2023-02-28T09:39:34;4.63;;;3.03;;
16522;SDS011;19889;52.546;13.348;2023-02-28T09:42:01;4.57;;;1.70;;
16522;SDS011;19889;52.546;13.348;2023-02-28T09:44:30;4.73;;;2.37;;
16522;SDS011;19889;52.546;13.348;2023-02-28T09:47:04;1.83;;;1.60;;
16522;SDS011;19889;52.546;13.348;2023-02-28T09:49:37;3.40;;;2.57;;
16522;SDS011;19889;52.546;13.348;2023-02-28T09:52:10;3.27;;;1.97;;
16522;SDS011;19889;52.546;13.348;2023-02-28T09:54:41;3.40;;;2.07;;
16522;SDS011;19889;52.546;13.348;2023-02-28T09:57:13;3.93;;;1.90;;
16522;SDS011;19889;52.546;13.348;2023-02-28T09:59:50;3.77;;;1.70;;
16522;SDS011;19889;52.546;13.348;2023-02-28T10:02:38;8.07;;;4.50;;
16522;SDS011;19889;52.546;13.348;2023-02-28T10:05:24;2.80;;;1.80;;
16522;SDS011;19889;52.546;13.348;2023-02-28T10:08:04;3.87;;;2.13;;
16522;SDS011;19889;52.546;13.348;2023-02-28T10:10:39;2.57;;;1.43;;
16522;SDS011;19889;52.546;13.348;2023-02-28T10:13:12;6.50;;;2.33;;
16522;SDS011;19889;52.546;13.348;2023-02-28T10:15:46;4.10;;;1.60;;
16522;SDS011;19889;52.546;13.348;2023-02-28T10:18:19;5.17;;;2.00;;
16522;SDS011;19889;52.546;13.348;2023-02-28T10:20:50;2.97;;;1.93;;
16522;SDS011;19889;52.546;13.348;2023-02-28T10:23:24;2.13;;;1.63;;
16522;SDS011;19889;52.546;13.348;2023-02-28T10:25:55;2.20;;;1.93;;
16522;SDS011;19889;52.546;13.348;2023-02-28T10:28:25;2.53;;;1.90;;
16522;SDS011;19889;52.546;13.348;2023-02-28T10:30:55;4.17;;;1.97;;
16522;SDS011;19889;52.546;13.348;2023-02-28T10:33:25;2.80;;;1.93;;
16522;SDS011;19889;52.546;13.348;2023-02-28T10:35:55;2.13;;;1.53;;
16522;SDS011;19889;52.546;13.348;2023-02-28T10:38:24;5.10;;;1.70;;
16522;SDS011;19889;52.546;13.348;2023-02-28T10:41:02;3.47;;;1.83;;
16522;SDS011;19889;52.546;13.348;2023-02-28T10:43:31;2.43;;;1.80;;
16522;SDS011;19889;52.546;13.348;2023-02-28T10:45:59;2.13;;;1.70;;
16522;SDS011;19889;52.546;13.348;2023-02-28T10:48:30;3.53;;;1.53;;
16522;SDS011;19889;52.546;13.348;2023-02-28T10:51:00;1.87;;;1.57;;
16522;SDS011;19889;52.546;13.348;2023-02-28T10:53:34;3.17;;;1.53;;
16522;SDS011;19889;52.546;13.348;2023-02-28T10:56:05;2.13;;;1.70;;
16522;SDS011;19889;52.546;13.348;2023-02-28T10:58:49;5.03;;;1.50;;
16522;SDS011;19889;52.546;13.348;2023-02-28T11:01:19;1.80;;;1.70;;
16522;SDS011;19889;52.546;13.348;2023-02-28T11:03:47;4.07;;;1.70;;
16522;SDS011;19889;52.546;13.348;2023-02-28T11:06:16;6.27;;;1.80;;
16522;SDS011;19889;52.546;13.348;2023-02-28T11:08:47;2.53;;;1.77;;
16522;SDS011;19889;52.546;13.348;2023-02-28T11:11:16;3.20;;;1.73;;
16522;SDS011;19889;52.546;13.348;2023-02-28T11:13:45;9.17;;;5.67;;
16522;SDS011;19889;52.546;13.348;2023-02-28T11:16:15;4.43;;;2.60;;
16522;SDS011;19889;52.546;13.348;2023-02-28T11:18:43;4.90;;;2.47;;
16522;SDS011;19889;52.546;13.348;2023-02-28T11:21:18;2.63;;;1.97;;
16522;SDS011;19889;52.546;13.348;2023-02-28T11:23:51;2.27;;;1.97;;
16522;SDS011;19889;52.546;13.348;2023-02-28T11:26:36;2.67;;;1.80;;
16522;SDS011;19889;52.546;13.348;2023-02-28T11:29:12;4.30;;;2.07;;
16522;SDS011;19889;52.546;13.348;2023-02-28T11:31:52;2.60;;;1.93;;
16522;SDS011;19889;52.546;13.348;2023-02-28T11:34:34;4.23;;;2.87;;
16522;SDS011;19889;52.546;13.348;2023-02-28T11:37:02;3.40;;;2.33;;
16522;SDS011;19889;52.546;13.348;2023-02-28T11:39:37;6.50;;;3.37;;
16522;SDS011;19889;52.546;13.348;2023-02-28T11:42:11;6.77;;;2.90;;
16522;SDS011;19889;52.546;13.348;2023-02-28T11:45:11;5.03;;;1.70;;
16522;SDS011;19889;52.546;13.348;2023-02-28T11:47:47;3.37;;;2.50;;
16522;SDS011;19889;52.546;13.348;2023-02-28T11:50:26;3.00;;;1.80;;
16522;SDS011;19889;52.546;13.348;2023-02-28T11:53:10;3.27;;;1.90;;
16522;SDS011;19889;52.546;13.348;2023-02-28T11:55:47;2.10;;;1.70;;
16522;SDS011;19889;52.546;13.348;2023-02-28T11:58:28;4.87;;;2.20;;
16522;SDS011;19889;52.546;13.348;2023-02-28T12:01:07;2.80;;;2.00;;
16522;SDS011;19889;52.546;13.348;2023-02-28T12:03:43;3.50;;;2.40;;
16522;SDS011;19889;52.546;13.348;2023-02-28T12:06:16;2.47;;;2.00;;
16522;SDS011;19889;52.546;13.348;2023-02-28T12:08:50;5.47;;;1.97;;
16522;SDS011;19889;52.546;13.348;2023-02-28T12:11:39;6.27;;;3.10;;
16522;SDS011;19889;52.546;13.348;2023-02-28T12:14:21;4.47;;;2.47;;
16522;SDS011;19889;52.546;13.348;2023-02-28T12:17:13;3.37;;;2.20;;
16522;SDS011;19889;52.546;13.348;2023-02-28T12:19:48;3.87;;;2.03;;
16522;SDS011;19889;52.546;13.348;2023-02-28T12:22:28;3.97;;;2.40;;
16522;SDS011;19889;52.546;13.348;2023-02-28T12:25:10;3.83;;;2.10;;
16522;SDS011;19889;52.546;13.348;2023-02-28T12:27:49;2.40;;;2.20;;
16522;SDS011;19889;52.546;13.348;2023-02-28T12:30:19;4.53;;;2.43;;
16522;SDS011;19889;52.546;13.348;2023-02-28T12:32:50;3.70;;;2.53;;
16522;SDS011;19889;52.546;13.348;2023-02-28T12:35:23;6.10;;;2.40;;
16522;SDS011;19889;52.546;13.348;2023-02-28T12:37:55;4.83;;;2.20;;
16522;SDS011;19889;52.546;13.348;2023-02-28T12:40:25;2.40;;;2.20;;
16522;SDS011;19889;52.546;13.348;2023-02-28T12:43:01;6.07;;;3.77;;
16522;SDS011;19889;52.546;13.348;2023-02-28T12:45:36;5.37;;;3.13;;
16522;SDS011;19889;52.546;13.348;2023-02-28T12:48:08;4.67;;;2.50;;
16522;SDS011;19889;52.546;13.348;2023-02-28T12:50:40;4.37;;;2.60;;
16522;SDS011;19889;52.546;13.348;2023-02-28T12:53:09;4.47;;;2.70;;
16522;SDS011;19889;52.546;13.348;2023-02-28T12:55:45;4.30;;;2.40;;
16522;SDS011;19889;52.546;13.348;2023-02-28T12:58:22;5.73;;;3.03;;
16522;SDS011;19889;52.546;13.348;2023-02-28T13:01:17;4.93;;;2.60;;
16522;SDS011;19889;52.546;13.348;2023-02-28T13:06:58;6.07;;;2.73;;
16522;SDS011;19889;52.546;13.348;2023-02-28T13:09:36;3.23;;;2.60;;
16522;SDS011;19889;52.546;13.348;2023-02-28T13:12:12;6.30;;;2.70;;
16522;SDS011;19889;52.546;13.348;2023-02-28T13:14:42;3.23;;;2.23;;
16522;SDS011;19889;52.546;13.348;2023-02-28T13:17:12;3.63;;;2.70;;
16522;SDS011;19889;52.546;13.348;2023-02-28T13:19:45;5.10;;;2.40;;
16522;SDS011;19889;52.546;13.348;2023-02-28T13:22:36;3.07;;;2.13;;
16522;SDS011;19889;52.546;13.348;2023-02-28T13:31:33;6.20;;;2.90;;
16522;SDS011;19889;52.546;13.348;2023-02-28T13:34:38;6.03;;;2.60;;
16522;SDS011;19889;52.546;13.348;2023-02-28T13:43:01;2.83;;;2.00;;
16522;SDS011;19889;52.546;13.348;2023-02-28T13:45:29;3.33;;;2.80;;
16522;SDS011;19889;52.546;13.348;2023-02-28T13:48:03;3.13;;;2.60;;
16522;SDS011;19889;52.546;13.348;2023-02-28T13:50:35;21.30;;;10.83;;
16522;SDS011;19889;52.546;13.348;2023-02-28T13:56:17;5.27;;;3.50;;
16522;SDS011;19889;52.546;13.348;2023-02-28T13:58:53;4.33;;;2.60;;
16522;SDS011;19889;52.546;13.348;2023-02-28T14:01:24;5.37;;;2.90;;
16522;SDS011;19889;52.546;13.348;2023-02-28T14:04:17;3.30;;;2.53;;
16522;SDS011;19889;52.546;13.348;2023-02-28T14:07:19;4.43;;;2.57;;
16522;SDS011;19889;52.546;13.348;2023-02-28T14:09:52;4.43;;;2.60;;
16522;SDS011;19889;52.546;13.348;2023-02-28T14:15:30;4.70;;;2.80;;
16522;SDS011;19889;52.546;13.348;2023-02-28T14:21:10;3.43;;;2.13;;
16522;SDS011;19889;52.546;13.348;2023-02-28T14:23:52;3.57;;;2.30;;
16522;SDS011;19889;52.546;13.348;2023-02-28T14:26:51;4.40;;;2.80;;
16522;SDS011;19889;52.546;13.348;2023-02-28T14:29:30;4.30;;;2.50;;
16522;SDS011;19889;52.546;13.348;2023-02-28T14:32:11;5.20;;;2.50;;
16522;SDS011;19889;52.546;13.348;2023-02-28T14:34:49;3.57;;;2.57;;
16522;SDS011;19889;52.546;13.348;2023-02-28T14:37:23;2.93;;;2.37;;
16522;SDS011;19889;52.546;13.348;2023-02-28T14:39:55;4.07;;;2.10;;
16522;SDS011;19889;52.546;13.348;2023-02-28T14:42:30;4.33;;;2.40;;
16522;SDS011;19889;52.546;13.348;2023-02-28T14:44:58;3.23;;;2.60;;
16522;SDS011;19889;52.546;13.348;2023-02-28T14:47:26;4.47;;;2.50;;
16522;SDS011;19889;52.546;13.348;2023-02-28T14:49:56;2.53;;;1.93;;
16522;SDS011;19889;52.546;13.348;2023-02-28T14:52:27;5.03;;;2.30;;
16522;SDS011;19889;52.546;13.348;2023-02-28T14:54:55;4.77;;;2.40;;
16522;SDS011;19889;52.546;13.348;2023-02-28T14:57:25;3.27;;;2.27;;
16522;SDS011;19889;52.546;13.348;2023-02-28T14:59:57;44.83;;;19.43;;
16522;SDS011;19889;52.546;13.348;2023-02-28T15:02:30;7.13;;;4.40;;
16522;SDS011;19889;52.546;13.348;2023-02-28T15:05:00;3.37;;;2.57;;
16522;SDS011;19889;52.546;13.348;2023-02-28T15:07:38;3.70;;;2.50;;
16522;SDS011;19889;52.546;13.348;2023-02-28T15:10:09;2.60;;;2.40;;
16522;SDS011;19889;52.546;13.348;2023-02-28T15:12:39;3.70;;;2.30;;
16522;SDS011;19889;52.546;13.348;2023-02-28T15:15:14;6.23;;;2.23;;
16522;SDS011;19889;52.546;13.348;2023-02-28T15:17:42;5.13;;;2.50;;
16522;SDS011;19889;52.546;13.348;2023-02-28T15:20:12;2.90;;;2.00;;
16522;SDS011;19889;52.546;13.348;2023-02-28T15:22:43;2.57;;;2.07;;
16522;SDS011;19889;52.546;13.348;2023-02-28T15:25:14;3.50;;;2.40;;
16522;SDS011;19889;52.546;13.348;2023-02-28T15:27:45;3.30;;;2.30;;
16522;SDS011;19889;52.546;13.348;2023-02-28T15:30:15;3.33;;;2.50;;